sensor_id;sensor_type;location;lat;lon;timestamp;P1;durP1;ratioP1;P2;durP2;ratioP2
28934;SDS011;16044;52.726;-2.108;2023-05-20T00:00:45;19.50;;;12.52;;
28934;SDS011;16044;52.726;-2.108;2023-05-20T00:03:15;22.33;;;13.95;;
28934;SDS011;16044;52.726;-2.108;2023-05-20T00:05:42;19.17;;;13.63;;
28934;SDS011;16044;52.726;-2.108;2023-05-20T00:08:10;21.02;;;13.23;;
28934;SDS011;16044;52.726;-2.108;2023-05-20T00:10:37;19.77;;;13.50;;
28934;SDS011;16044;52.726;-2.108;2023-05-20T00:13:05;19.63;;;13.63;;
28934;SDS011;16044;52.726;-2.108;2023-05-20T00:15:32;22.13;;;14.32;;
28934;SDS011;16044;52.726;-2.108;2023-05-20T00:18:00;24.20;;;15.10;;
28934;SDS011;16044;52.726;-2.108;2023-05-20T00:20:29;20.23;;;14.13;;
28934;SDS011;16044;52.726;-2.108;2023-05-20T00:22:57;20.63;;;13.23;;
28934;SDS011;16044;52.726;-2.108;2023-05-20T00:25:24;21.58;;;13.45;;
28934;SDS011;16044;52.726;-2.108;2023-05-20T00:27:51;20.98;;;12.75;;
28934;SDS011;16044;52.726;-2.108;2023-05-20T00:30:18;19.50;;;13.65;;
28934;SDS011;16044;52.726;-2.108;2023-05-20T00:32:46;21.70;;;14.93;;
28934;SDS011;16044;52.726;-2.108;2023-05-20T00:35:13;23.40;;;14.85;;
28934;SDS011;16044;52.726;-2.108;2023-05-20T00:37:40;21.48;;;14.88;;
28934;SDS011;16044;52.726;-2.108;2023-05-20T00:40:07;20.85;;;13.15;;
28934;SDS011;16044;52.726;-2.108;2023-05-20T00:42:34;21.83;;;14.15;;
28934;SDS011;16044;52.726;-2.108;2023-05-20T00:45:01;24.02;;;15.05;;
28934;SDS011;16044;52.726;-2.108;2023-05-20T00:47:29;22.90;;;14.55;;
28934;SDS011;16044;52.726;-2.108;2023-05-20T00:50:02;22.52;;;15.98;;
28934;SDS011;16044;52.726;-2.108;2023-05-20T00:52:30;24.00;;;15.38;;
28934;SDS011;16044;52.726;-2.108;2023-05-20T00:54:58;19.05;;;13.25;;
28934;SDS011;16044;52.726;-2.108;2023-05-20T00:57:25;21.08;;;14.50;;
28934;SDS011;16044;52.726;-2.108;2023-05-20T00:59:53;21.63;;;15.82;;
28934;SDS011;16044;52.726;-2.108;2023-05-20T01:02:20;24.10;;;16.30;;
28934;SDS011;16044;52.726;-2.108;2023-05-20T01:04:48;26.85;;;18.65;;
28934;SDS011;16044;52.726;-2.108;2023-05-20T01:07:16;31.40;;;20.20;;
28934;SDS011;16044;52.726;-2.108;2023-05-20T01:09:44;34.78;;;21.83;;
28934;SDS011;16044;52.726;-2.108;2023-05-20T01:12:20;38.28;;;22.08;;
28934;SDS011;16044;52.726;-2.108;2023-05-20T01:14:58;34.85;;;24.15;;
28934;SDS011;16044;52.726;-2.108;2023-05-20T01:17:32;45.50;;;24.20;;
28934;SDS011;16044;52.726;-2.108;2023-05-20T01:20:12;37.53;;;23.02;;
28934;SDS011;16044;52.726;-2.108;2023-05-20T01:22:47;39.20;;;24.83;;
28934;SDS011;16044;52.726;-2.108;2023-05-20T01:25:21;43.35;;;23.83;;
28934;SDS011;16044;52.726;-2.108;2023-05-20T01:27:48;44.28;;;26.80;;
28934;SDS011;16044;52.726;-2.108;2023-05-20T01:30:16;37.25;;;24.08;;
28934;SDS011;16044;52.726;-2.108;2023-05-20T01:32:47;40.05;;;24.88;;
28934;SDS011;16044;52.726;-2.108;2023-05-20T01:35:19;45.92;;;26.42;;
28934;SDS011;16044;52.726;-2.108;2023-05-20T01:37:47;39.47;;;24.98;;
28934;SDS011;16044;52.726;-2.108;2023-05-20T01:40:16;39.38;;;24.38;;
28934;SDS011;16044;52.726;-2.108;2023-05-20T01:42:44;36.08;;;23.77;;
28934;SDS011;16044;52.726;-2.108;2023-05-20T01:45:18;33.85;;;21.20;;
28934;SDS011;16044;52.726;-2.108;2023-05-20T01:47:46;41.72;;;22.58;;
28934;SDS011;16044;52.726;-2.108;2023-05-20T01:50:13;34.40;;;22.25;;
28934;SDS011;16044;52.726;-2.108;2023-05-20T01:52:40;31.90;;;20.38;;
28934;SDS011;16044;52.726;-2.108;2023-05-20T01:55:08;34.92;;;21.60;;
28934;SDS011;16044;52.726;-2.108;2023-05-20T01:57:35;35.38;;;21.20;;
28934;SDS011;16044;52.726;-2.108;2023-05-20T02:00:02;33.70;;;19.73;;
28934;SDS011;16044;52.726;-2.108;2023-05-20T02:02:30;30.10;;;18.63;;
28934;SDS011;16044;52.726;-2.108;2023-05-20T02:04:57;29.98;;;18.50;;
28934;SDS011;16044;52.726;-2.108;2023-05-20T02:07:24;34.58;;;20.38;;
28934;SDS011;16044;52.726;-2.108;2023-05-20T02:09:51;35.63;;;20.52;;
28934;SDS011;16044;52.726;-2.108;2023-05-20T02:12:17;31.05;;;18.30;;
28934;SDS011;16044;52.726;-2.108;2023-05-20T02:14:45;34.85;;;20.45;;
28934;SDS011;16044;52.726;-2.108;2023-05-20T02:17:13;34.65;;;19.33;;
28934;SDS011;16044;52.726;-2.108;2023-05-20T02:19:43;36.42;;;19.67;;
28934;SDS011;16044;52.726;-2.108;2023-05-20T02:22:11;35.33;;;19.58;;
28934;SDS011;16044;52.726;-2.108;2023-05-20T02:24:39;30.60;;;18.60;;
28934;SDS011;16044;52.726;-2.108;2023-05-20T02:27:07;31.67;;;17.58;;
28934;SDS011;16044;52.726;-2.108;2023-05-20T02:29:34;29.27;;;18.17;;
28934;SDS011;16044;52.726;-2.108;2023-05-20T02:32:01;30.30;;;16.80;;
28934;SDS011;16044;52.726;-2.108;2023-05-20T02:34:28;30.05;;;17.60;;
28934;SDS011;16044;52.726;-2.108;2023-05-20T02:36:57;27.92;;;17.23;;
28934;SDS011;16044;52.726;-2.108;2023-05-20T02:39:24;29.33;;;17.35;;
28934;SDS011;16044;52.726;-2.108;2023-05-20T02:41:51;30.42;;;18.67;;
28934;SDS011;16044;52.726;-2.108;2023-05-20T02:44:18;26.02;;;16.85;;
28934;SDS011;16044;52.726;-2.108;2023-05-20T02:46:45;34.33;;;18.15;;
28934;SDS011;16044;52.726;-2.108;2023-05-20T02:49:12;31.80;;;19.88;;
28934;SDS011;16044;52.726;-2.108;2023-05-20T02:51:39;33.38;;;18.08;;
28934;SDS011;16044;52.726;-2.108;2023-05-20T02:54:06;28.05;;;18.13;;
28934;SDS011;16044;52.726;-2.108;2023-05-20T02:56:33;36.58;;;18.75;;
28934;SDS011;16044;52.726;-2.108;2023-05-20T02:59:00;26.95;;;17.15;;
28934;SDS011;16044;52.726;-2.108;2023-05-20T03:01:27;36.58;;;19.75;;
28934;SDS011;16044;52.726;-2.108;2023-05-20T03:03:54;29.98;;;18.65;;
28934;SDS011;16044;52.726;-2.108;2023-05-20T03:06:22;31.75;;;17.50;;
28934;SDS011;16044;52.726;-2.108;2023-05-20T03:08:49;29.05;;;17.05;;
28934;SDS011;16044;52.726;-2.108;2023-05-20T03:11:15;28.02;;;16.98;;
28934;SDS011;16044;52.726;-2.108;2023-05-20T03:13:42;26.23;;;16.52;;
28934;SDS011;16044;52.726;-2.108;2023-05-20T03:16:09;28.45;;;17.38;;
28934;SDS011;16044;52.726;-2.108;2023-05-20T03:18:38;29.77;;;16.85;;
28934;SDS011;16044;52.726;-2.108;2023-05-20T03:21:06;29.60;;;15.27;;
28934;SDS011;16044;52.726;-2.108;2023-05-20T03:23:33;30.10;;;15.98;;
28934;SDS011;16044;52.726;-2.108;2023-05-20T03:26:00;29.95;;;17.58;;
28934;SDS011;16044;52.726;-2.108;2023-05-20T03:28:28;29.75;;;16.63;;
28934;SDS011;16044;52.726;-2.108;2023-05-20T03:30:55;30.65;;;15.65;;
28934;SDS011;16044;52.726;-2.108;2023-05-20T03:33:22;25.65;;;14.70;;
28934;SDS011;16044;52.726;-2.108;2023-05-20T03:35:51;30.90;;;17.02;;
28934;SDS011;16044;52.726;-2.108;2023-05-20T03:38:18;28.63;;;16.88;;
28934;SDS011;16044;52.726;-2.108;2023-05-20T03:40:45;23.33;;;14.38;;
28934;SDS011;16044;52.726;-2.108;2023-05-20T03:43:12;23.52;;;14.60;;
28934;SDS011;16044;52.726;-2.108;2023-05-20T03:45:39;34.05;;;16.88;;
28934;SDS011;16044;52.726;-2.108;2023-05-20T03:48:06;28.70;;;15.20;;
28934;SDS011;16044;52.726;-2.108;2023-05-20T03:50:33;29.10;;;16.95;;
28934;SDS011;16044;52.726;-2.108;2023-05-20T03:53:01;31.05;;;17.17;;
28934;SDS011;16044;52.726;-2.108;2023-05-20T03:55:28;26.00;;;14.80;;
28934;SDS011;16044;52.726;-2.108;2023-05-20T03:57:55;30.95;;;14.93;;
28934;SDS011;16044;52.726;-2.108;2023-05-20T04:00:22;28.00;;;15.00;;
28934;SDS011;16044;52.726;-2.108;2023-05-20T04:02:49;25.25;;;15.80;;
28934;SDS011;16044;52.726;-2.108;2023-05-20T04:05:16;26.92;;;15.32;;
28934;SDS011;16044;52.726;-2.108;2023-05-20T04:07:43;27.33;;;15.63;;
28934;SDS011;16044;52.726;-2.108;2023-05-20T04:10:11;26.15;;;14.02;;
28934;SDS011;16044;52.726;-2.108;2023-05-20T04:12:38;27.90;;;15.60;;
28934;SDS011;16044;52.726;-2.108;2023-05-20T04:15:05;25.55;;;15.20;;
28934;SDS011;16044;52.726;-2.108;2023-05-20T04:17:33;24.13;;;14.88;;
28934;SDS011;16044;52.726;-2.108;2023-05-20T04:20:03;26.77;;;14.32;;
28934;SDS011;16044;52.726;-2.108;2023-05-20T04:22:33;30.63;;;16.00;;
28934;SDS011;16044;52.726;-2.108;2023-05-20T04:25:00;28.23;;;16.88;;
28934;SDS011;16044;52.726;-2.108;2023-05-20T04:27:29;24.65;;;15.77;;
28934;SDS011;16044;52.726;-2.108;2023-05-20T04:29:56;32.42;;;17.98;;
28934;SDS011;16044;52.726;-2.108;2023-05-20T04:32:24;26.42;;;15.23;;
28934;SDS011;16044;52.726;-2.108;2023-05-20T04:34:52;31.45;;;16.83;;
28934;SDS011;16044;52.726;-2.108;2023-05-20T04:37:21;22.25;;;13.13;;
28934;SDS011;16044;52.726;-2.108;2023-05-20T04:39:48;27.75;;;16.45;;
28934;SDS011;16044;52.726;-2.108;2023-05-20T04:42:16;32.65;;;15.32;;
28934;SDS011;16044;52.726;-2.108;2023-05-20T04:44:44;29.25;;;16.52;;
28934;SDS011;16044;52.726;-2.108;2023-05-20T04:47:11;33.80;;;15.70;;
28934;SDS011;16044;52.726;-2.108;2023-05-20T04:49:39;29.02;;;15.57;;
28934;SDS011;16044;52.726;-2.108;2023-05-20T04:52:06;29.17;;;16.80;;
28934;SDS011;16044;52.726;-2.108;2023-05-20T04:54:33;27.10;;;14.77;;
28934;SDS011;16044;52.726;-2.108;2023-05-20T04:57:00;26.75;;;14.60;;
28934;SDS011;16044;52.726;-2.108;2023-05-20T04:59:28;31.50;;;16.33;;
28934;SDS011;16044;52.726;-2.108;2023-05-20T05:01:55;26.38;;;16.48;;
28934;SDS011;16044;52.726;-2.108;2023-05-20T05:04:22;35.97;;;17.35;;
28934;SDS011;16044;52.726;-2.108;2023-05-20T05:06:49;29.17;;;14.57;;
28934;SDS011;16044;52.726;-2.108;2023-05-20T05:09:16;23.30;;;12.93;;
28934;SDS011;16044;52.726;-2.108;2023-05-20T05:11:43;23.13;;;12.80;;
28934;SDS011;16044;52.726;-2.108;2023-05-20T05:14:10;18.63;;;11.95;;
28934;SDS011;16044;52.726;-2.108;2023-05-20T05:16:37;24.25;;;12.20;;
28934;SDS011;16044;52.726;-2.108;2023-05-20T05:19:04;24.10;;;12.90;;
28934;SDS011;16044;52.726;-2.108;2023-05-20T05:21:31;23.20;;;12.02;;
28934;SDS011;16044;52.726;-2.108;2023-05-20T05:23:58;21.88;;;11.30;;
28934;SDS011;16044;52.726;-2.108;2023-05-20T05:26:25;19.48;;;11.07;;
28934;SDS011;16044;52.726;-2.108;2023-05-20T05:28:53;19.67;;;11.05;;
28934;SDS011;16044;52.726;-2.108;2023-05-20T05:31:20;27.77;;;11.07;;
28934;SDS011;16044;52.726;-2.108;2023-05-20T05:33:47;16.23;;;9.55;;
28934;SDS011;16044;52.726;-2.108;2023-05-20T05:36:15;19.63;;;10.23;;
28934;SDS011;16044;52.726;-2.108;2023-05-20T05:38:42;20.55;;;9.88;;
28934;SDS011;16044;52.726;-2.108;2023-05-20T05:41:09;17.48;;;9.43;;
28934;SDS011;16044;52.726;-2.108;2023-05-20T05:43:36;22.27;;;9.23;;
28934;SDS011;16044;52.726;-2.108;2023-05-20T05:46:03;16.25;;;9.13;;
28934;SDS011;16044;52.726;-2.108;2023-05-20T05:48:31;19.80;;;9.27;;
28934;SDS011;16044;52.726;-2.108;2023-05-20T05:50:58;19.50;;;9.82;;
28934;SDS011;16044;52.726;-2.108;2023-05-20T05:53:25;14.00;;;8.20;;
28934;SDS011;16044;52.726;-2.108;2023-05-20T05:55:52;17.67;;;8.77;;
28934;SDS011;16044;52.726;-2.108;2023-05-20T05:58:19;19.40;;;9.68;;
28934;SDS011;16044;52.726;-2.108;2023-05-20T06:00:46;14.65;;;7.63;;
28934;SDS011;16044;52.726;-2.108;2023-05-20T06:03:18;17.15;;;8.93;;
28934;SDS011;16044;52.726;-2.108;2023-05-20T06:05:45;17.77;;;9.32;;
28934;SDS011;16044;52.726;-2.108;2023-05-20T06:08:15;14.25;;;8.02;;
28934;SDS011;16044;52.726;-2.108;2023-05-20T06:10:46;16.02;;;7.82;;
28934;SDS011;16044;52.726;-2.108;2023-05-20T06:13:16;15.50;;;8.75;;
28934;SDS011;16044;52.726;-2.108;2023-05-20T06:15:44;16.48;;;8.45;;
28934;SDS011;16044;52.726;-2.108;2023-05-20T06:18:11;18.10;;;7.82;;
28934;SDS011;16044;52.726;-2.108;2023-05-20T06:20:38;15.52;;;7.57;;
28934;SDS011;16044;52.726;-2.108;2023-05-20T06:23:06;12.63;;;7.00;;
28934;SDS011;16044;52.726;-2.108;2023-05-20T06:25:33;16.13;;;7.10;;
28934;SDS011;16044;52.726;-2.108;2023-05-20T06:28:00;16.70;;;6.63;;
28934;SDS011;16044;52.726;-2.108;2023-05-20T06:30:27;11.50;;;6.30;;
28934;SDS011;16044;52.726;-2.108;2023-05-20T06:32:54;15.70;;;6.45;;
28934;SDS011;16044;52.726;-2.108;2023-05-20T06:35:21;16.65;;;7.30;;
28934;SDS011;16044;52.726;-2.108;2023-05-20T06:37:48;14.65;;;7.30;;
28934;SDS011;16044;52.726;-2.108;2023-05-20T06:40:15;17.10;;;7.43;;
28934;SDS011;16044;52.726;-2.108;2023-05-20T06:42:42;15.50;;;7.22;;
28934;SDS011;16044;52.726;-2.108;2023-05-20T06:45:09;18.95;;;7.70;;
28934;SDS011;16044;52.726;-2.108;2023-05-20T06:47:37;17.17;;;7.03;;
28934;SDS011;16044;52.726;-2.108;2023-05-20T06:50:04;18.70;;;8.10;;
28934;SDS011;16044;52.726;-2.108;2023-05-20T06:52:31;11.45;;;7.05;;
28934;SDS011;16044;52.726;-2.108;2023-05-20T06:54:58;12.98;;;6.97;;
28934;SDS011;16044;52.726;-2.108;2023-05-20T06:57:26;15.95;;;7.80;;
28934;SDS011;16044;52.726;-2.108;2023-05-20T06:59:53;18.23;;;8.05;;
28934;SDS011;16044;52.726;-2.108;2023-05-20T07:02:20;11.30;;;7.47;;
28934;SDS011;16044;52.726;-2.108;2023-05-20T07:04:48;16.02;;;8.23;;
28934;SDS011;16044;52.726;-2.108;2023-05-20T07:07:15;17.88;;;9.27;;
28934;SDS011;16044;52.726;-2.108;2023-05-20T07:09:42;16.17;;;8.95;;
28934;SDS011;16044;52.726;-2.108;2023-05-20T07:12:09;15.88;;;8.60;;
28934;SDS011;16044;52.726;-2.108;2023-05-20T07:14:36;18.92;;;9.13;;
28934;SDS011;16044;52.726;-2.108;2023-05-20T07:17:03;14.95;;;8.10;;
28934;SDS011;16044;52.726;-2.108;2023-05-20T07:19:31;16.08;;;8.68;;
28934;SDS011;16044;52.726;-2.108;2023-05-20T07:21:59;15.73;;;8.25;;
28934;SDS011;16044;52.726;-2.108;2023-05-20T07:24:26;16.30;;;8.52;;
28934;SDS011;16044;52.726;-2.108;2023-05-20T07:26:53;14.30;;;8.35;;
28934;SDS011;16044;52.726;-2.108;2023-05-20T07:29:20;18.55;;;9.05;;
28934;SDS011;16044;52.726;-2.108;2023-05-20T07:31:47;13.00;;;7.85;;
28934;SDS011;16044;52.726;-2.108;2023-05-20T07:34:14;18.05;;;8.65;;
28934;SDS011;16044;52.726;-2.108;2023-05-20T07:36:41;14.05;;;8.07;;
28934;SDS011;16044;52.726;-2.108;2023-05-20T07:39:09;12.57;;;7.78;;
28934;SDS011;16044;52.726;-2.108;2023-05-20T07:41:40;14.55;;;8.13;;
28934;SDS011;16044;52.726;-2.108;2023-05-20T07:44:10;13.57;;;7.75;;
28934;SDS011;16044;52.726;-2.108;2023-05-20T07:46:38;13.52;;;7.65;;
28934;SDS011;16044;52.726;-2.108;2023-05-20T07:49:07;15.57;;;8.27;;
28934;SDS011;16044;52.726;-2.108;2023-05-20T07:51:34;21.30;;;9.30;;
28934;SDS011;16044;52.726;-2.108;2023-05-20T07:54:01;19.05;;;9.75;;
28934;SDS011;16044;52.726;-2.108;2023-05-20T07:56:28;16.13;;;8.95;;
28934;SDS011;16044;52.726;-2.108;2023-05-20T07:58:58;16.38;;;8.45;;
28934;SDS011;16044;52.726;-2.108;2023-05-20T08:01:25;18.63;;;9.35;;
28934;SDS011;16044;52.726;-2.108;2023-05-20T08:03:52;15.68;;;8.30;;
28934;SDS011;16044;52.726;-2.108;2023-05-20T08:06:20;13.07;;;7.03;;
28934;SDS011;16044;52.726;-2.108;2023-05-20T08:08:49;11.85;;;6.50;;
28934;SDS011;16044;52.726;-2.108;2023-05-20T08:11:16;12.85;;;6.22;;
28934;SDS011;16044;52.726;-2.108;2023-05-20T08:13:43;9.77;;;5.03;;
28934;SDS011;16044;52.726;-2.108;2023-05-20T08:16:10;15.38;;;5.60;;
28934;SDS011;16044;52.726;-2.108;2023-05-20T08:18:37;22.63;;;5.90;;
28934;SDS011;16044;52.726;-2.108;2023-05-20T08:21:05;11.43;;;4.85;;
28934;SDS011;16044;52.726;-2.108;2023-05-20T08:23:35;13.45;;;5.47;;
28934;SDS011;16044;52.726;-2.108;2023-05-20T08:26:05;10.20;;;4.85;;
28934;SDS011;16044;52.726;-2.108;2023-05-20T08:28:33;9.50;;;4.93;;
28934;SDS011;16044;52.726;-2.108;2023-05-20T08:31:02;11.88;;;4.38;;
28934;SDS011;16044;52.726;-2.108;2023-05-20T08:33:29;11.30;;;4.53;;
28934;SDS011;16044;52.726;-2.108;2023-05-20T08:35:56;11.18;;;4.65;;
28934;SDS011;16044;52.726;-2.108;2023-05-20T08:38:23;10.65;;;4.38;;
28934;SDS011;16044;52.726;-2.108;2023-05-20T08:40:54;14.00;;;5.38;;
28934;SDS011;16044;52.726;-2.108;2023-05-20T08:43:23;11.32;;;5.35;;
28934;SDS011;16044;52.726;-2.108;2023-05-20T08:45:51;10.73;;;5.05;;
28934;SDS011;16044;52.726;-2.108;2023-05-20T08:48:18;11.85;;;4.88;;
28934;SDS011;16044;52.726;-2.108;2023-05-20T08:50:51;15.68;;;5.65;;
28934;SDS011;16044;52.726;-2.108;2023-05-20T08:53:19;11.25;;;4.88;;
28934;SDS011;16044;52.726;-2.108;2023-05-20T08:55:55;12.57;;;4.50;;
28934;SDS011;16044;52.726;-2.108;2023-05-20T08:58:29;12.27;;;4.43;;
28934;SDS011;16044;52.726;-2.108;2023-05-20T09:00:56;11.40;;;4.20;;
28934;SDS011;16044;52.726;-2.108;2023-05-20T09:03:26;11.30;;;4.53;;
28934;SDS011;16044;52.726;-2.108;2023-05-20T09:06:02;10.77;;;4.25;;
28934;SDS011;16044;52.726;-2.108;2023-05-20T09:08:31;13.88;;;4.55;;
28934;SDS011;16044;52.726;-2.108;2023-05-20T09:10:59;13.20;;;4.18;;
28934;SDS011;16044;52.726;-2.108;2023-05-20T09:13:26;10.93;;;3.88;;
28934;SDS011;16044;52.726;-2.108;2023-05-20T09:15:58;9.18;;;3.63;;
28934;SDS011;16044;52.726;-2.108;2023-05-20T09:18:27;12.38;;;4.38;;
28934;SDS011;16044;52.726;-2.108;2023-05-20T09:20:55;14.45;;;4.32;;
28934;SDS011;16044;52.726;-2.108;2023-05-20T09:23:22;9.45;;;4.25;;
28934;SDS011;16044;52.726;-2.108;2023-05-20T09:25:51;10.35;;;4.20;;
28934;SDS011;16044;52.726;-2.108;2023-05-20T09:28:19;12.93;;;4.53;;
28934;SDS011;16044;52.726;-2.108;2023-05-20T09:30:55;11.15;;;4.60;;
28934;SDS011;16044;52.726;-2.108;2023-05-20T09:33:27;11.35;;;4.22;;
28934;SDS011;16044;52.726;-2.108;2023-05-20T09:36:07;10.57;;;4.70;;
28934;SDS011;16044;52.726;-2.108;2023-05-20T09:38:36;10.93;;;4.35;;
28934;SDS011;16044;52.726;-2.108;2023-05-20T09:41:07;11.23;;;4.85;;
28934;SDS011;16044;52.726;-2.108;2023-05-20T09:43:40;8.82;;;4.70;;
28934;SDS011;16044;52.726;-2.108;2023-05-20T09:46:08;13.10;;;5.50;;
28934;SDS011;16044;52.726;-2.108;2023-05-20T09:48:36;12.38;;;5.63;;
28934;SDS011;16044;52.726;-2.108;2023-05-20T09:51:04;13.75;;;6.07;;
28934;SDS011;16044;52.726;-2.108;2023-05-20T09:53:33;8.82;;;4.82;;
28934;SDS011;16044;52.726;-2.108;2023-05-20T09:56:01;12.90;;;5.82;;
28934;SDS011;16044;52.726;-2.108;2023-05-20T09:58:29;17.67;;;6.68;;
28934;SDS011;16044;52.726;-2.108;2023-05-20T10:00:56;15.32;;;6.63;;
28934;SDS011;16044;52.726;-2.108;2023-05-20T10:03:24;12.43;;;5.88;;
28934;SDS011;16044;52.726;-2.108;2023-05-20T10:06:03;12.52;;;7.07;;
28934;SDS011;16044;52.726;-2.108;2023-05-20T10:11:49;13.40;;;7.18;;
28934;SDS011;16044;52.726;-2.108;2023-05-20T10:14:39;18.10;;;7.70;;
28934;SDS011;16044;52.726;-2.108;2023-05-20T10:19:58;14.05;;;8.23;;
28934;SDS011;16044;52.726;-2.108;2023-05-20T10:22:27;17.10;;;8.45;;
28934;SDS011;16044;52.726;-2.108;2023-05-20T10:24:58;13.05;;;7.57;;
28934;SDS011;16044;52.726;-2.108;2023-05-20T10:27:42;15.73;;;8.07;;
28934;SDS011;16044;52.726;-2.108;2023-05-20T10:30:20;14.95;;;8.20;;
28934;SDS011;16044;52.726;-2.108;2023-05-20T10:32:48;14.10;;;8.25;;
28934;SDS011;16044;52.726;-2.108;2023-05-20T10:35:23;15.73;;;8.55;;
28934;SDS011;16044;52.726;-2.108;2023-05-20T10:37:54;15.57;;;8.98;;
28934;SDS011;16044;52.726;-2.108;2023-05-20T10:40:36;18.88;;;8.55;;
28934;SDS011;16044;52.726;-2.108;2023-05-20T10:43:10;18.25;;;9.45;;
28934;SDS011;16044;52.726;-2.108;2023-05-20T10:45:46;17.25;;;8.50;;
28934;SDS011;16044;52.726;-2.108;2023-05-20T10:48:26;14.90;;;9.48;;
28934;SDS011;16044;52.726;-2.108;2023-05-20T10:50:58;21.30;;;10.40;;
28934;SDS011;16044;52.726;-2.108;2023-05-20T10:53:38;17.98;;;9.07;;
28934;SDS011;16044;52.726;-2.108;2023-05-20T10:56:17;15.90;;;9.35;;
28934;SDS011;16044;52.726;-2.108;2023-05-20T10:58:50;14.48;;;7.93;;
28934;SDS011;16044;52.726;-2.108;2023-05-20T11:01:23;14.98;;;7.40;;
28934;SDS011;16044;52.726;-2.108;2023-05-20T11:03:55;14.05;;;8.00;;
28934;SDS011;16044;52.726;-2.108;2023-05-20T11:06:27;12.15;;;7.15;;
28934;SDS011;16044;52.726;-2.108;2023-05-20T11:08:54;15.23;;;7.38;;
28934;SDS011;16044;52.726;-2.108;2023-05-20T11:11:21;13.77;;;6.90;;
28934;SDS011;16044;52.726;-2.108;2023-05-20T11:13:49;11.35;;;6.97;;
28934;SDS011;16044;52.726;-2.108;2023-05-20T11:16:21;15.85;;;7.40;;
28934;SDS011;16044;52.726;-2.108;2023-05-20T11:18:48;12.00;;;7.15;;
28934;SDS011;16044;52.726;-2.108;2023-05-20T11:21:17;16.30;;;7.68;;
28934;SDS011;16044;52.726;-2.108;2023-05-20T11:23:45;16.08;;;7.55;;
28934;SDS011;16044;52.726;-2.108;2023-05-20T11:26:12;16.40;;;7.95;;
28934;SDS011;16044;52.726;-2.108;2023-05-20T11:28:39;14.00;;;7.20;;
28934;SDS011;16044;52.726;-2.108;2023-05-20T11:31:06;15.75;;;8.20;;
28934;SDS011;16044;52.726;-2.108;2023-05-20T11:33:33;16.23;;;7.72;;
28934;SDS011;16044;52.726;-2.108;2023-05-20T11:36:01;18.30;;;8.63;;
28934;SDS011;16044;52.726;-2.108;2023-05-20T11:38:36;12.15;;;7.65;;
28934;SDS011;16044;52.726;-2.108;2023-05-20T11:41:03;17.05;;;7.38;;
28934;SDS011;16044;52.726;-2.108;2023-05-20T11:43:30;12.75;;;7.40;;
28934;SDS011;16044;52.726;-2.108;2023-05-20T11:45:59;15.40;;;7.22;;
28934;SDS011;16044;52.726;-2.108;2023-05-20T11:48:26;12.02;;;7.43;;
28934;SDS011;16044;52.726;-2.108;2023-05-20T11:50:54;17.65;;;7.72;;
28934;SDS011;16044;52.726;-2.108;2023-05-20T11:53:22;14.93;;;6.88;;
28934;SDS011;16044;52.726;-2.108;2023-05-20T11:55:54;17.90;;;8.90;;
28934;SDS011;16044;52.726;-2.108;2023-05-20T11:58:24;13.90;;;7.72;;
28934;SDS011;16044;52.726;-2.108;2023-05-20T12:00:55;12.82;;;7.70;;
28934;SDS011;16044;52.726;-2.108;2023-05-20T12:03:39;28.60;;;8.95;;
28934;SDS011;16044;52.726;-2.108;2023-05-20T12:06:06;16.25;;;8.23;;
28934;SDS011;16044;52.726;-2.108;2023-05-20T12:08:33;16.42;;;8.23;;
28934;SDS011;16044;52.726;-2.108;2023-05-20T12:11:00;14.63;;;8.27;;
28934;SDS011;16044;52.726;-2.108;2023-05-20T12:13:27;17.00;;;8.30;;
28934;SDS011;16044;52.726;-2.108;2023-05-20T12:15:54;14.18;;;7.43;;
28934;SDS011;16044;52.726;-2.108;2023-05-20T12:18:21;16.25;;;8.73;;
28934;SDS011;16044;52.726;-2.108;2023-05-20T12:20:48;17.08;;;8.43;;
28934;SDS011;16044;52.726;-2.108;2023-05-20T12:23:15;12.63;;;7.68;;
28934;SDS011;16044;52.726;-2.108;2023-05-20T12:25:43;12.23;;;7.32;;
28934;SDS011;16044;52.726;-2.108;2023-05-20T12:28:12;14.57;;;7.32;;
28934;SDS011;16044;52.726;-2.108;2023-05-20T12:30:40;15.05;;;7.00;;
28934;SDS011;16044;52.726;-2.108;2023-05-20T12:33:07;12.57;;;6.90;;
28934;SDS011;16044;52.726;-2.108;2023-05-20T12:35:35;12.30;;;7.00;;
28934;SDS011;16044;52.726;-2.108;2023-05-20T12:38:05;10.40;;;6.60;;
28934;SDS011;16044;52.726;-2.108;2023-05-20T12:40:32;12.90;;;6.97;;
28934;SDS011;16044;52.726;-2.108;2023-05-20T12:43:01;12.25;;;7.10;;
28934;SDS011;16044;52.726;-2.108;2023-05-20T12:45:30;15.05;;;6.97;;
28934;SDS011;16044;52.726;-2.108;2023-05-20T12:47:57;14.18;;;7.47;;
28934;SDS011;16044;52.726;-2.108;2023-05-20T12:50:25;12.30;;;6.95;;
28934;SDS011;16044;52.726;-2.108;2023-05-20T12:52:52;11.73;;;6.90;;
28934;SDS011;16044;52.726;-2.108;2023-05-20T12:55:19;12.43;;;5.88;;
28934;SDS011;16044;52.726;-2.108;2023-05-20T12:57:46;9.52;;;5.88;;
28934;SDS011;16044;52.726;-2.108;2023-05-20T13:00:14;12.05;;;6.13;;
28934;SDS011;16044;52.726;-2.108;2023-05-20T13:02:42;11.52;;;5.75;;
28934;SDS011;16044;52.726;-2.108;2023-05-20T13:05:09;13.35;;;5.43;;
28934;SDS011;16044;52.726;-2.108;2023-05-20T13:07:36;12.23;;;5.70;;
28934;SDS011;16044;52.726;-2.108;2023-05-20T13:10:04;12.20;;;6.38;;
28934;SDS011;16044;52.726;-2.108;2023-05-20T13:12:33;11.73;;;5.55;;
28934;SDS011;16044;52.726;-2.108;2023-05-20T13:15:00;12.15;;;5.93;;
28934;SDS011;16044;52.726;-2.108;2023-05-20T13:17:28;8.98;;;5.90;;
28934;SDS011;16044;52.726;-2.108;2023-05-20T13:19:56;11.68;;;6.00;;
28934;SDS011;16044;52.726;-2.108;2023-05-20T13:22:23;12.35;;;7.00;;
28934;SDS011;16044;52.726;-2.108;2023-05-20T13:24:50;11.55;;;7.15;;
28934;SDS011;16044;52.726;-2.108;2023-05-20T13:27:17;13.27;;;6.53;;
28934;SDS011;16044;52.726;-2.108;2023-05-20T13:29:44;13.07;;;6.35;;
28934;SDS011;16044;52.726;-2.108;2023-05-20T13:32:11;10.45;;;6.50;;
28934;SDS011;16044;52.726;-2.108;2023-05-20T13:34:38;12.40;;;6.63;;
28934;SDS011;16044;52.726;-2.108;2023-05-20T13:37:06;12.65;;;6.82;;
28934;SDS011;16044;52.726;-2.108;2023-05-20T13:39:33;12.25;;;6.68;;
28934;SDS011;16044;52.726;-2.108;2023-05-20T13:42:00;10.75;;;6.25;;
28934;SDS011;16044;52.726;-2.108;2023-05-20T13:44:27;11.38;;;6.32;;
28934;SDS011;16044;52.726;-2.108;2023-05-20T13:46:56;11.00;;;6.13;;
28934;SDS011;16044;52.726;-2.108;2023-05-20T13:49:23;11.57;;;6.32;;
28934;SDS011;16044;52.726;-2.108;2023-05-20T13:51:51;10.40;;;6.05;;
28934;SDS011;16044;52.726;-2.108;2023-05-20T13:54:19;11.65;;;5.90;;
28934;SDS011;16044;52.726;-2.108;2023-05-20T13:56:47;11.20;;;6.25;;
28934;SDS011;16044;52.726;-2.108;2023-05-20T13:59:14;11.65;;;6.18;;
28934;SDS011;16044;52.726;-2.108;2023-05-20T14:01:41;10.20;;;6.10;;
28934;SDS011;16044;52.726;-2.108;2023-05-20T14:04:11;10.35;;;5.60;;
28934;SDS011;16044;52.726;-2.108;2023-05-20T14:06:38;14.77;;;6.40;;
28934;SDS011;16044;52.726;-2.108;2023-05-20T14:09:06;9.98;;;6.45;;
28934;SDS011;16044;52.726;-2.108;2023-05-20T14:11:34;16.48;;;6.63;;
28934;SDS011;16044;52.726;-2.108;2023-05-20T14:14:02;12.07;;;6.55;;
28934;SDS011;16044;52.726;-2.108;2023-05-20T14:16:29;11.60;;;6.03;;
28934;SDS011;16044;52.726;-2.108;2023-05-20T14:18:58;11.00;;;5.93;;
28934;SDS011;16044;52.726;-2.108;2023-05-20T14:21:25;14.35;;;6.30;;
28934;SDS011;16044;52.726;-2.108;2023-05-20T14:23:52;10.20;;;5.55;;
28934;SDS011;16044;52.726;-2.108;2023-05-20T14:26:19;16.65;;;6.80;;
28934;SDS011;16044;52.726;-2.108;2023-05-20T14:28:47;9.05;;;6.13;;